Time;durP1;ratioP1;P1;durP2;ratioP2;P2;SDS_P1;SDS_P2;PMS_P1;PMS_P2;Temp;Humidity;BMP_temperature;BMP_pressure;BME280_temperature;BME280_humidity;BME280_pressure;Samples;Min_cycle;Max_cycle;Signal;HPM_P1;HPM_P2
2021/11/03 00:00:49;;;;;;;;;;;;;;;8.24;81.05;101085.35;1911086;75;20385;-67
2021/11/03 00:03:17;;;;;;;;;;;;;;;8.25;81.06;101088.86;1911038;75;20126;-69
2021/11/03 00:05:46;;;;;;;;;;;;;;;8.24;80.91;101084.50;1911069;75;20102;-68
2021/11/03 00:08:15;;;;;;;;;;;;;;;8.24;80.88;101084.50;1910946;75;20381;-68
2021/11/03 00:10:44;;;;;;;;;;;;;;;8.23;81.08;101086.73;1911061;75;20399;-68
2021/11/03 00:13:13;;;;;;;;;;;;;;;8.18;81.46;101085.97;1911082;75;20435;-68
2021/11/03 00:15:41;;;;;;;;;;;;;;;8.11;81.69;101088.74;1911053;75;20426;-68
2021/11/03 00:18:09;;;;;;;;;;;;;;;8.02;82.01;101085.02;1910984;75;20203;-68
2021/11/03 00:20:37;;;;;;;;;;;;;;;7.96;81.91;101086.45;1911071;75;20126;-68
2021/11/03 00:23:06;;;;;;;;;;;;;;;7.96;81.74;101090.38;1911128;75;20130;-68
2021/11/03 00:25:37;;;;;;;;;;;;;;;7.94;81.72;101081.70;1911160;75;20385;-68
2021/11/03 00:28:03;;;;;;;;;;;;;;;7.95;81.54;101082.13;1910802;73;20145;-67
2021/11/03 00:30:31;;;;;;;;;;;;;;;7.92;81.53;101084.80;1910914;75;20196;-67
2021/11/03 00:32:58;;;;;;;;;;;;;;;7.83;81.78;101091.56;1911117;75;20146;-67
2021/11/03 00:35:26;;;;;;;;;;;;;;;7.79;81.89;101093.39;1911065;75;20115;-67
2021/11/03 00:37:54;;;;;;;;;;;;;;;7.77;82.21;101090.40;1911071;75;20122;-68
2021/11/03 00:40:22;;;;;;;;;;;;;;;7.76;82.13;101097.84;1911046;75;20505;-68
2021/11/03 00:42:51;;;;;;;;;;;;;;;7.76;82.25;101101.77;1911011;75;20448;-68
2021/11/03 00:45:20;;;;;;;;;;;;;;;7.72;82.50;101100.51;1910977;75;20243;-67
2021/11/03 00:47:48;;;;;;;;;;;;;;;7.67;82.51;101101.08;1911064;75;20369;-67
2021/11/03 00:50:17;;;;;;;;;;;;;;;7.67;82.57;101092.33;1911144;75;20134;-68
2021/11/03 00:52:45;;;;;;;;;;;;;;;7.68;82.66;101090.99;1911003;75;20400;-66
2021/11/03 00:55:14;;;;;;;;;;;;;;;7.68;82.65;101094.92;1911049;75;20115;-66
2021/11/03 00:57:42;;;;;;;;;;;;;;;7.68;82.79;101093.61;1911204;75;20111;-66
2021/11/03 01:00:11;;;;;;;;;;;;;;;7.65;82.77;101089.73;1907692;74;20119;-65
2021/11/03 01:02:39;;;;;;;;;;;;;;;7.62;82.90;101092.91;1910986;75;20185;-65
2021/11/03 01:05:08;;;;;;;;;;;;;;;7.60;82.90;101088.11;1885868;75;20107;-67
2021/11/03 01:07:36;;;;;;;;;;;;;;;7.59;82.86;101088.56;1911053;75;20377;-68
2021/11/03 01:10:05;;;;;;;;;;;;;;;7.59;82.77;101100.81;1910970;75;20107;-68
2021/11/03 01:12:33;;;;;;;;;;;;;;;7.59;82.86;101102.98;1911024;75;20134;-67
2021/11/03 01:15:01;;;;;;;;;;;;;;;7.60;82.77;101098.17;1911037;75;20193;-67
2021/11/03 01:17:29;;;;;;;;;;;;;;;7.62;82.78;101104.70;1911009;75;20111;-67
2021/11/03 01:19:57;;;;;;;;;;;;;;;7.63;82.63;101099.85;1910960;75;20099;-66
2021/11/03 01:22:25;;;;;;;;;;;;;;;7.68;82.47;101101.94;1911052;75;20119;-67
2021/11/03 01:24:53;;;;;;;;;;;;;;;7.70;82.49;101101.00;1910948;75;20126;-67
2021/11/03 01:27:21;;;;;;;;;;;;;;;7.76;82.46;101106.55;1911023;75;20196;-67
2021/11/03 01:29:49;;;;;;;;;;;;;;;7.81;82.36;101105.16;1911024;75;20119;-67
2021/11/03 01:32:16;;;;;;;;;;;;;;;7.83;82.45;101105.53;1911034;75;20115;-67
2021/11/03 01:34:45;;;;;;;;;;;;;;;7.91;82.22;101106.66;1911135;75;20443;-67
2021/11/03 01:37:13;;;;;;;;;;;;;;;8.01;82.11;101108.66;1910950;75;20212;-67
2021/11/03 01:39:41;;;;;;;;;;;;;;;8.06;82.19;101107.66;1910981;75;20138;-67
2021/11/03 01:42:09;;;;;;;;;;;;;;;8.10;82.12;101114.55;1911080;75;20103;-67
2021/11/03 01:44:37;;;;;;;;;;;;;;;8.11;82.09;101105.80;1911031;75;20157;-67
2021/11/03 01:47:23;;;;;;;;;;;;;;;8.12;82.06;101106.19;1910995;75;20149;-67
2021/11/03 01:49:53;;;;;;;;;;;;;;;8.12;82.04;101102.71;1910303;75;20143;-68
2021/11/03 01:52:21;;;;;;;;;;;;;;;8.11;82.12;101099.23;1911045;75;20116;-68
2021/11/03 01:54:51;;;;;;;;;;;;;;;8.11;82.29;101102.28;1910561;75;20143;-67
2021/11/03 01:57:28;;;;;;;;;;;;;;;8.10;82.30;101097.50;1909118;75;20205;-67
2021/11/03 01:59:58;;;;;;;;;;;;;;;8.11;82.25;101099.66;1910977;74;20119;-68
2021/11/03 02:02:27;;;;;;;;;;;;;;;8.13;82.32;101109.66;1910910;75;20146;-69
2021/11/03 02:04:56;;;;;;;;;;;;;;;8.19;82.22;101106.03;1910984;75;20131;-68
2021/11/03 02:07:25;;;;;;;;;;;;;;;8.24;82.15;101106.80;1911021;75;20099;-68
2021/11/03 02:09:54;;;;;;;;;;;;;;;8.25;82.04;101101.98;1910981;75;20107;-67
2021/11/03 02:12:24;;;;;;;;;;;;;;;8.26;81.94;101107.20;1910780;75;20177;-68
2021/11/03 02:14:53;;;;;;;;;;;;;;;8.24;81.97;101104.17;1910917;75;20393;-69
2021/11/03 02:17:23;;;;;;;;;;;;;;;8.23;82.15;101110.34;1911202;75;20376;-68
2021/11/03 02:19:51;;;;;;;;;;;;;;;8.24;82.14;101110.73;1910986;75;20103;-68
2021/11/03 02:22:23;;;;;;;;;;;;;;;8.24;82.32;101115.52;1910959;75;20389;-69
2021/11/03 02:25:02;;;;;;;;;;;;;;;8.25;82.39;101112.02;1910981;75;20168;-68
2021/11/03 02:27:31;;;;;;;;;;;;;;;8.27;82.47;101118.09;1910929;75;20115;-68
2021/11/03 02:29:59;;;;;;;;;;;;;;;8.31;82.40;101114.48;1911059;75;20106;-68
2021/11/03 02:32:28;;;;;;;;;;;;;;;8.40;82.26;101112.09;1911099;75;20115;-67
2021/11/03 02:34:56;;;;;;;;;;;;;;;8.47;82.16;101113.71;1911053;75;20385;-68
2021/11/03 02:37:32;;;;;;;;;;;;;;;8.52;82.32;101114.93;1911094;75;20161;-68
2021/11/03 02:40:02;;;;;;;;;;;;;;;8.54;82.29;101125.36;1911029;75;20107;-68
2021/11/03 02:42:32;;;;;;;;;;;;;;;8.53;82.22;101122.34;1911119;75;20115;-68
2021/11/03 02:45:02;;;;;;;;;;;;;;;8.53;82.34;101110.53;1911093;75;20107;-68
2021/11/03 02:47:30;;;;;;;;;;;;;;;8.53;82.54;101118.41;1911081;75;20098;-68
2021/11/03 02:49:58;;;;;;;;;;;;;;;8.53;82.70;101109.22;1911130;75;20115;-68
2021/11/03 02:52:27;;;;;;;;;;;;;;;8.54;82.76;101100.00;1910975;75;20135;-68
2021/11/03 02:54:54;;;;;;;;;;;;;;;8.54;82.92;101109.19;1911104;75;20118;-65
2021/11/03 02:57:23;;;;;;;;;;;;;;;8.55;82.81;101115.29;1911206;75;20427;-66
2021/11/03 02:59:51;;;;;;;;;;;;;;;8.58;82.98;101111.29;1911125;75;20137;-66
2021/11/03 03:02:18;;;;;;;;;;;;;;;8.55;83.06;101116.14;1898597;75;20118;-67
2021/11/03 03:04:48;;;;;;;;;;;;;;;8.57;83.19;101114.80;1895738;76;20114;-66
2021/11/03 03:07:17;;;;;;;;;;;;;;;8.60;83.09;101109.02;1895808;76;20106;-65
2021/11/03 03:09:45;;;;;;;;;;;;;;;8.64;82.89;101110.66;1895769;76;20118;-64
2021/11/03 03:12:16;;;;;;;;;;;;;;;8.68;82.72;101110.98;1895691;76;20141;-64
2021/11/03 03:14:46;;;;;;;;;;;;;;;8.71;82.65;101108.76;1895706;76;20118;-65
2021/11/03 03:17:15;;;;;;;;;;;;;;;8.74;82.52;101103.41;1895715;75;20137;-64
2021/11/03 03:19:44;;;;;;;;;;;;;;;8.73;82.53;101104.33;1895621;76;20197;-65
2021/11/03 03:22:13;;;;;;;;;;;;;;;8.73;82.54;101098.22;1895663;76;20173;-64
2021/11/03 03:24:41;;;;;;;;;;;;;;;8.73;82.51;101104.33;1895823;76;20118;-64
2021/11/03 03:27:10;;;;;;;;;;;;;;;8.74;82.39;101103.41;1895829;76;20401;-63
2021/11/03 03:29:39;;;;;;;;;;;;;;;8.76;82.58;101100.32;1895770;76;20385;-63
2021/11/03 03:32:08;;;;;;;;;;;;;;;8.79;82.44;101104.63;1895575;76;20400;-63
2021/11/03 03:34:37;;;;;;;;;;;;;;;8.81;82.36;101112.86;1895851;75;20361;-62
2021/11/03 03:37:05;;;;;;;;;;;;;;;8.82;82.60;101108.48;1895723;76;20178;-62
2021/11/03 03:39:36;;;;;;;;;;;;;;;8.86;82.51;101109.67;1895677;75;20958;-61
2021/11/03 03:42:15;;;;;;;;;;;;;;;8.93;82.29;101105.13;1870925;76;20126;-62
2021/11/03 03:44:45;;;;;;;;;;;;;;;8.98;82.12;101101.94;1895549;75;20521;-63
2021/11/03 03:47:13;;;;;;;;;;;;;;;9.02;82.29;101098.31;1895776;76;20118;-62
2021/11/03 03:49:41;;;;;;;;;;;;;;;9.03;82.24;101109.67;1895643;76;20110;-62
2021/11/03 03:52:11;;;;;;;;;;;;;;;9.04;82.46;101112.73;1895659;76;20115;-62
2021/11/03 03:54:39;;;;;;;;;;;;;;;9.04;82.66;101108.79;1895791;76;20150;-61
2021/11/03 03:57:07;;;;;;;;;;;;;;;9.05;82.70;101109.18;1895586;76;20119;-62
2021/11/03 03:59:36;;;;;;;;;;;;;;;9.05;82.97;101111.81;1895734;76;20426;-64
2021/11/03 04:02:04;;;;;;;;;;;;;;;9.07;82.99;101107.38;1895546;74;20153;-64
2021/11/03 04:04:32;;;;;;;;;;;;;;;9.10;82.77;101103.36;1895711;75;20181;-64
2021/11/03 04:07:00;;;;;;;;;;;;;;;9.14;82.56;101098.42;1895816;75;20114;-64
2021/11/03 04:09:30;;;;;;;;;;;;;;;9.15;82.49;101099.27;1895666;76;20141;-65
2021/11/03 04:11:58;;;;;;;;;;;;;;;9.14;82.71;101098.42;1895898;76;20487;-65
2021/11/03 04:14:26;;;;;;;;;;;;;;;9.17;82.63;101101.44;1895720;76;20141;-65
2021/11/03 04:16:53;;;;;;;;;;;;;;;9.20;82.47;101104.84;1895805;74;20153;-67
2021/11/03 04:19:22;;;;;;;;;;;;;;;9.21;82.47;101106.55;1895747;75;20137;-67
2021/11/03 04:21:49;;;;;;;;;;;;;;;9.22;82.45;101104.34;1895723;76;20149;-67
2021/11/03 04:24:18;;;;;;;;;;;;;;;9.23;82.46;101099.48;1895636;75;20197;-67
2021/11/03 04:26:47;;;;;;;;;;;;;;;9.22;82.62;101098.20;1895784;76;20103;-66
2021/11/03 04:29:17;;;;;;;;;;;;;;;9.22;82.93;101104.78;1895712;76;20137;-66
2021/11/03 04:31:46;;;;;;;;;;;;;;;9.21;83.21;101096.04;1895672;76;20103;-66
2021/11/03 04:34:15;;;;;;;;;;;;;;;9.25;83.12;101098.98;1895694;76;20416;-64
2021/11/03 04:36:42;;;;;;;;;;;;;;;9.28;83.19;101104.63;1895660;76;20648;-68
2021/11/03 04:39:11;;;;;;;;;;;;;;;9.31;83.16;101101.04;1895707;76;20107;-68
2021/11/03 04:41:40;;;;;;;;;;;;;;;9.35;83.10;101106.61;1895404;76;20113;-68
2021/11/03 04:44:09;;;;;;;;;;;;;;;9.38;82.82;101109.16;1895865;76;20106;-68
2021/11/03 04:46:37;;;;;;;;;;;;;;;9.41;82.66;101109.09;1895724;76;20114;-66
2021/11/03 04:49:06;;;;;;;;;;;;;;;9.44;82.50;101110.30;1895659;75;20427;-70
2021/11/03 04:51:34;;;;;;;;;;;;;;;9.48;82.38;101110.64;1895844;76;20115;-69
2021/11/03 04:54:02;;;;;;;;;;;;;;;9.53;82.44;101114.44;1895651;76;20119;-69
2021/11/03 04:56:31;;;;;;;;;;;;;;;9.56;82.46;101116.98;1895772;76;20162;-69
2021/11/03 04:58:59;;;;;;;;;;;;;;;9.60;82.36;101116.84;1895770;75;20122;-69
2021/11/03 05:01:27;;;;;;;;;;;;;;;9.65;82.24;101109.69;1895724;76;20103;-68
2021/11/03 05:03:58;;;;;;;;;;;;;;;9.73;82.11;101114.72;1895661;76;20119;-69
2021/11/03 05:06:28;;;;;;;;;;;;;;;9.81;81.94;101112.73;1895672;75;20114;-69
2021/11/03 05:08:57;;;;;;;;;;;;;;;9.87;81.76;101115.63;1871160;76;20111;-68
2021/11/03 05:11:26;;;;;;;;;;;;;;;9.93;81.64;101122.48;1895701;76;20106;-69
2021/11/03 05:13:54;;;;;;;;;;;;;;;9.99;81.46;101126.22;1895814;74;20115;-69
2021/11/03 05:16:25;;;;;;;;;;;;;;;10.01;81.36;101126.61;1895605;74;20397;-69
2021/11/03 05:18:54;;;;;;;;;;;;;;;10.05;81.28;101119.02;1895689;76;20142;-68
2021/11/03 05:21:22;;;;;;;;;;;;;;;10.11;81.19;101117.11;1895729;76;20122;-68
2021/11/03 05:23:51;;;;;;;;;;;;;;;10.19;81.06;101120.36;1895793;75;20145;-68
2021/11/03 05:26:20;;;;;;;;;;;;;;;10.23;80.97;101124.14;1895678;76;20153;-68
2021/11/03 05:28:50;;;;;;;;;;;;;;;10.31;80.87;101127.02;1895747;76;20118;-68
2021/11/03 05:31:18;;;;;;;;;;;;;;;10.38;80.74;101133.38;1895628;76;20122;-68
2021/11/03 05:33:46;;;;;;;;;;;;;;;10.46;80.63;101129.61;1895682;76;20118;-68
2021/11/03 05:36:15;;;;;;;;;;;;;;;10.54;80.46;101132.41;1895664;76;20107;-68
2021/11/03 05:38:43;;;;;;;;;;;;;;;10.61;80.30;101131.77;1895644;76;20173;-68
2021/11/03 05:41:11;;;;;;;;;;;;;;;10.68;80.18;101125.83;1895569;76;20102;-69
2021/11/03 05:43:39;;;;;;;;;;;;;;;10.73;80.08;101127.39;1895607;76;20118;-68
2021/11/03 05:46:07;;;;;;;;;;;;;;;10.76;80.05;101130.40;1895630;76;20110;-68
2021/11/03 05:48:39;;;;;;;;;;;;;;;10.76;79.98;101120.72;1895602;76;20193;-69
2021/11/03 05:51:07;;;;;;;;;;;;;;;10.78;79.87;101132.05;1895548;76;20118;-69
2021/11/03 05:53:38;;;;;;;;;;;;;;;10.81;79.79;101134.59;1895781;76;20098;-68
2021/11/03 05:56:06;;;;;;;;;;;;;;;10.85;79.74;101131.87;1895590;76;20177;-68
2021/11/03 05:58:35;;;;;;;;;;;;;;;10.86;79.65;101130.94;1894643;76;20122;-69
2021/11/03 06:01:03;;;;;;;;;;;;;;;10.87;79.59;101132.20;1895641;76;20141;-69
2021/11/03 06:03:31;;;;;;;;;;;;;;;10.88;79.61;101133.95;1895641;74;20122;-69
2021/11/03 06:05:59;;;;;;;;;;;;;;;10.88;79.64;101141.84;1895704;76;20188;-69
2021/11/03 06:08:27;;;;;;;;;;;;;;;10.89;79.65;101144.88;1895517;76;20123;-69
2021/11/03 06:10:56;;;;;;;;;;;;;;;10.92;79.65;101140.83;1895564;74;20103;-69
2021/11/03 06:13:24;;;;;;;;;;;;;;;10.96;79.56;101150.80;1895576;76;20110;-69
2021/11/03 06:15:52;;;;;;;;;;;;;;;11.01;79.47;101152.80;1895611;76;20114;-69
2021/11/03 06:18:20;;;;;;;;;;;;;;;11.02;79.45;101153.22;1895592;76;20118;-69
2021/11/03 06:20:47;;;;;;;;;;;;;;;11.05;79.38;101159.71;1895531;74;20145;-68
2021/11/03 06:23:16;;;;;;;;;;;;;;;11.04;79.39;101150.07;1895693;76;20119;-68
2021/11/03 06:25:44;;;;;;;;;;;;;;;11.04;79.47;101150.07;1895661;76;20161;-68
2021/11/03 06:28:12;;;;;;;;;;;;;;;11.08;79.50;101155.63;1895585;76;20114;-68
2021/11/03 06:30:39;;;;;;;;;;;;;;;11.12;79.55;101162.55;1895621;76;20144;-69
2021/11/03 06:33:07;;;;;;;;;;;;;;;11.17;79.49;101165.86;1895744;74;20114;-67
2021/11/03 06:35:36;;;;;;;;;;;;;;;11.28;79.40;101162.00;1895508;76;20103;-68
2021/11/03 06:38:05;;;;;;;;;;;;;;;11.42;79.30;101152.27;1895624;76;20119;-67
2021/11/03 06:40:35;;;;;;;;;;;;;;;11.57;79.15;101160.96;1895553;75;20162;-68
2021/11/03 06:43:04;;;;;;;;;;;;;;;11.67;79.04;101161.00;1895653;76;20196;-69
2021/11/03 06:45:32;;;;;;;;;;;;;;;11.76;78.94;101154.54;1895569;76;20149;-69
2021/11/03 06:48:00;;;;;;;;;;;;;;;11.86;78.83;101160.32;1895476;74;20110;-68
2021/11/03 06:50:30;;;;;;;;;;;;;;;11.93;78.68;101152.61;1895556;76;20597;-68
2021/11/03 06:53:02;;;;;;;;;;;;;;;12.03;78.59;101168.98;1895579;76;20106;-69
2021/11/03 06:55:31;;;;;;;;;;;;;;;12.07;78.61;101162.19;1895599;76;20114;-68
2021/11/03 06:57:59;;;;;;;;;;;;;;;12.11;78.69;101162.92;1895609;76;20162;-68
2021/11/03 07:00:29;;;;;;;;;;;;;;;12.17;78.70;101167.95;1895626;74;20116;-68
2021/11/03 07:02:57;;;;;;;;;;;;;;;12.22;78.67;101174.39;1896340;75;20106;-68
2021/11/03 07:05:25;;;;;;;;;;;;;;;12.29;78.65;101170.13;1910959;75;20119;-68
2021/11/03 07:07:53;;;;;;;;;;;;;;;12.36;78.61;101165.01;1911082;75;20393;-68
2021/11/03 07:10:22;;;;;;;;;;;;;;;12.42;78.52;101167.02;1910944;74;20115;-68
2021/11/03 07:12:50;;;;;;;;;;;;;;;12.47;78.53;101174.30;1910904;75;20115;-67
2021/11/03 07:15:19;;;;;;;;;;;;;;;12.52;78.53;101178.91;1910924;75;20178;-68
2021/11/03 07:17:47;;;;;;;;;;;;;;;12.57;78.50;101183.56;1911031;75;20153;-67
2021/11/03 07:20:15;;;;;;;;;;;;;;;12.65;78.41;101169.59;1911088;75;20201;-67
2021/11/03 07:22:42;;;;;;;;;;;;;;;12.73;78.48;101174.56;1911070;75;20115;-68
2021/11/03 07:25:12;;;;;;;;;;;;;;;12.80;78.47;101177.79;1911057;75;20115;-68
2021/11/03 07:27:40;;;;;;;;;;;;;;;12.87;78.39;101170.01;1911000;75;20103;-67
2021/11/03 07:30:08;;;;;;;;;;;;;;;12.97;78.28;101171.35;1911098;75;20149;-68
2021/11/03 07:32:36;;;;;;;;;;;;;;;13.04;78.14;101166.21;1911122;75;20372;-67
2021/11/03 07:35:04;;;;;;;;;;;;;;;13.12;78.03;101179.09;1911086;75;20114;-68
2021/11/03 07:37:32;;;;;;;;;;;;;;;13.20;77.93;101170.83;1911066;75;20115;-67
2021/11/03 07:39:59;;;;;;;;;;;;;;;13.27;77.78;101181.54;1911047;75;20149;-69
2021/11/03 07:42:27;;;;;;;;;;;;;;;13.28;77.67;101184.12;1911091;75;20181;-67
2021/11/03 07:44:56;;;;;;;;;;;;;;;13.29;77.67;101172.60;1911054;75;20380;-68
2021/11/03 07:47:24;;;;;;;;;;;;;;;13.34;77.62;101188.31;1911088;75;20107;-67
2021/11/03 07:49:52;;;;;;;;;;;;;;;13.38;77.56;101185.93;1911085;75;20145;-67
2021/11/03 07:52:20;;;;;;;;;;;;;;;13.45;77.51;101179.45;1911066;75;20118;-67
2021/11/03 07:54:48;;;;;;;;;;;;;;;13.56;77.42;101178.12;1911013;75;20119;-68
2021/11/03 07:57:16;;;;;;;;;;;;;;;13.64;77.48;101178.63;1911029;75;20235;-68
2021/11/03 07:59:43;;;;;;;;;;;;;;;13.71;77.39;101180.08;1911093;75;20116;-67
2021/11/03 08:02:11;;;;;;;;;;;;;;;13.80;77.27;101184.95;1911092;75;20106;-67
2021/11/03 08:04:39;;;;;;;;;;;;;;;13.93;77.17;101191.02;1902302;74;20118;-68
2021/11/03 08:07:07;;;;;;;;;;;;;;;14.02;77.10;101194.56;1895896;76;20114;-67
2021/11/03 08:09:36;;;;;;;;;;;;;;;14.08;77.12;101191.62;1895712;76;20177;-68
2021/11/03 08:12:08;;;;;;;;;;;;;;;14.10;77.03;101197.23;1895930;76;20114;-67
2021/11/03 08:14:33;;;;;;;;;;;;;;;14.16;77.00;101198.73;1895385;76;20115;-67
2021/11/03 08:17:02;;;;;;;;;;;;;;;14.19;76.92;101195.10;1895714;76;20114;-67
2021/11/03 08:19:32;;;;;;;;;;;;;;;14.20;76.88;101193.71;1895730;76;20110;-67
2021/11/03 08:22:00;;;;;;;;;;;;;;;14.25;76.86;101191.68;1895759;76;20123;-67
2021/11/03 08:24:28;;;;;;;;;;;;;;;14.32;76.83;101192.27;1895746;76;20114;-67
2021/11/03 08:26:56;;;;;;;;;;;;;;;14.36;76.80;101195.63;1895687;76;20145;-67
2021/11/03 08:29:24;;;;;;;;;;;;;;;14.39;76.74;101192.84;1895659;76;20122;-67
2021/11/03 08:31:55;;;;;;;;;;;;;;;14.41;76.64;101190.97;1895717;76;20114;-67
2021/11/03 08:34:24;;;;;;;;;;;;;;;14.47;76.57;101201.27;1895679;76;20118;-68
2021/11/03 08:36:52;;;;;;;;;;;;;;;14.52;76.49;101197.94;1871264;76;20388;-67
2021/11/03 08:39:19;;;;;;;;;;;;;;;14.58;76.42;101204.28;1895772;76;20118;-68
2021/11/03 08:41:47;;;;;;;;;;;;;;;14.64;76.36;101205.77;1895688;76;20114;-68
2021/11/03 08:44:15;;;;;;;;;;;;;;;14.68;76.26;101208.66;1895698;76;20192;-68
2021/11/03 08:46:43;;;;;;;;;;;;;;;14.73;76.25;101212.43;1895617;76;20114;-68
2021/11/03 08:49:10;;;;;;;;;;;;;;;14.77;76.18;101217.52;1895694;76;20145;-68
2021/11/03 08:51:39;;;;;;;;;;;;;;;14.83;76.12;101222.98;1895674;76;20114;-68
2021/11/03 08:54:08;;;;;;;;;;;;;;;14.88;76.03;101228.89;1895734;76;20126;-68
2021/11/03 08:56:37;;;;;;;;;;;;;;;14.91;75.94;101220.80;1895681;76;20153;-68
2021/11/03 08:59:07;;;;;;;;;;;;;;;14.95;75.87;101221.51;1895129;76;20169;-68
2021/11/03 09:01:36;;;;;;;;;;;;;;;15.02;75.76;101229.55;1895729;76;20185;-69
2021/11/03 09:04:04;;;;;;;;;;;;;;;15.10;75.64;101226.52;1895607;74;20145;-68
2021/11/03 09:06:32;;;;;;;;;;;;;;;15.18;75.54;101230.95;1871160;76;20130;-69
2021/11/03 09:09:00;;;;;;;;;;;;;;;15.27;75.47;101235.82;1895662;76;20369;-68
2021/11/03 09:11:28;;;;;;;;;;;;;;;15.35;75.34;101228.79;1895686;76;20144;-68
2021/11/03 09:13:56;;;;;;;;;;;;;;;15.39;75.21;101225.88;1895565;76;20162;-69
2021/11/03 09:16:24;;;;;;;;;;;;;;;15.44;74.95;101217.22;1895786;76;20118;-68
2021/11/03 09:18:51;;;;;;;;;;;;;;;15.49;74.92;101218.78;1895694;76;20118;-68
2021/11/03 09:21:21;;;;;;;;;;;;;;;15.56;74.81;101225.48;1895655;75;20110;-68
2021/11/03 09:23:49;;;;;;;;;;;;;;;15.63;74.71;101229.53;1895670;76;20373;-68
2021/11/03 09:26:18;;;;;;;;;;;;;;;15.70;74.71;101238.05;1895613;76;20119;-68
2021/11/03 09:28:47;;;;;;;;;;;;;;;15.79;74.67;101232.28;1895673;76;20152;-68
2021/11/03 09:31:15;;;;;;;;;;;;;;;15.92;74.58;101236.00;1895649;76;20118;-68
2021/11/03 09:33:43;;;;;;;;;;;;;;;16.02;74.54;101233.69;1895603;76;20157;-67
2021/11/03 09:36:12;;;;;;;;;;;;;;;16.05;74.33;101234.02;1895690;76;20114;-68
2021/11/03 09:38:40;;;;;;;;;;;;;;;15.95;74.11;101233.63;1895743;75;20152;-68
2021/11/03 09:41:10;;;;;;;;;;;;;;;15.90;74.10;101233.89;1895508;75;20145;-68
2021/11/03 09:43:40;;;;;;;;;;;;;;;15.88;74.17;101233.13;1895626;76;20102;-68
2021/11/03 09:46:16;;;;;;;;;;;;;;;15.96;74.15;101229.58;1895659;76;20122;-67
2021/11/03 09:48:44;;;;;;;;;;;;;;;16.09;74.08;101232.42;1895663;74;20114;-68
2021/11/03 09:51:19;;;;;;;;;;;;;;;16.18;73.85;101223.10;1895597;76;20119;-68
2021/11/03 09:53:52;;;;;;;;;;;;;;;16.30;73.70;101225.54;1895670;76;20110;-68
2021/11/03 09:56:21;;;;;;;;;;;;;;;16.39;73.60;101233.00;1894685;76;20596;-67
2021/11/03 09:58:59;;;;;;;;;;;;;;;16.47;73.48;101229.91;1895760;76;20122;-68
2021/11/03 10:01:32;;;;;;;;;;;;;;;16.54;73.43;101229.51;1895615;75;20119;-68
2021/11/03 10:04:10;;;;;;;;;;;;;;;16.65;73.37;101232.02;1889481;76;20141;-68
2021/11/03 10:06:42;;;;;;;;;;;;;;;16.73;73.31;101239.95;1895280;75;20122;-68
2021/11/03 10:09:10;;;;;;;;;;;;;;;16.83;73.27;101238.13;1895026;75;20123;-68
2021/11/03 10:11:39;;;;;;;;;;;;;;;16.86;73.25;101232.16;1895676;76;20216;-68
2021/11/03 10:14:08;;;;;;;;;;;;;;;16.89;73.29;101231.96;1895710;76;20112;-67
2021/11/03 10:16:37;;;;;;;;;;;;;;;16.93;73.25;101234.86;1895638;76;20377;-68
2021/11/03 10:19:15;;;;;;;;;;;;;;;16.92;73.22;101246.42;1895650;76;20115;-68
2021/11/03 10:21:51;;;;;;;;;;;;;;;16.91;73.29;101239.41;1895655;76;20106;-68
2021/11/03 10:24:20;;;;;;;;;;;;;;;16.91;73.35;101238.08;1895654;76;20145;-68
2021/11/03 10:26:52;;;;;;;;;;;;;;;16.93;73.40;101248.16;1895540;75;20118;-68
2021/11/03 10:29:21;;;;;;;;;;;;;;;16.96;73.46;101249.28;1895628;76;20118;-68
2021/11/03 10:31:50;;;;;;;;;;;;;;;16.97;73.33;101247.02;1892465;76;20107;-68
2021/11/03 10:34:32;;;;;;;;;;;;;;;17.00;73.29;101247.78;1875349;76;20135;-68
2021/11/03 10:37:08;;;;;;;;;;;;;;;16.98;73.24;101251.38;1894239;76;20127;-65
2021/11/03 10:39:38;;;;;;;;;;;;;;;16.94;73.16;101253.84;1895612;76;20118;-68
2021/11/03 10:42:08;;;;;;;;;;;;;;;16.94;73.16;101252.51;1892970;76;20149;-69
2021/11/03 10:44:36;;;;;;;;;;;;;;;16.96;73.07;101247.95;1894905;75;20165;-68
2021/11/03 10:47:12;;;;;;;;;;;;;;;17.03;73.09;101255.60;1895693;76;20107;-67
2021/11/03 10:50:02;;;;;;;;;;;;;;;17.09;73.06;101259.22;1895533;76;20118;-67
2021/11/03 10:52:40;;;;;;;;;;;;;;;17.14;72.97;101262.48;1895710;76;20114;-65
2021/11/03 10:55:15;;;;;;;;;;;;;;;17.17;72.89;101262.28;1895678;75;20110;-69
2021/11/03 10:57:47;;;;;;;;;;;;;;;17.23;72.86;101267.27;1895728;76;20145;-67
2021/11/03 11:00:23;;;;;;;;;;;;;;;17.32;72.79;101266.72;1895641;76;20149;-67
2021/11/03 11:02:52;;;;;;;;;;;;;;;17.38;72.70;101269.98;1895786;76;20170;-66
2021/11/03 11:05:21;;;;;;;;;;;;;;;17.44;72.70;101261.62;1886744;74;20114;-66
2021/11/03 11:07:51;;;;;;;;;;;;;;;17.44;72.58;101275.77;1895729;76;20424;-65
2021/11/03 11:10:20;;;;;;;;;;;;;;;17.34;72.19;101274.14;1894961;76;20111;-65
2021/11/03 11:12:49;;;;;;;;;;;;;;;17.27;72.45;101275.45;1895502;75;20181;-66
2021/11/03 11:15:28;;;;;;;;;;;;;;;17.21;72.60;101284.25;1895788;76;20114;-66
2021/11/03 11:17:57;;;;;;;;;;;;;;;17.17;72.67;101282.23;1895504;76;20137;-66
2021/11/03 11:20:29;;;;;;;;;;;;;;;17.10;72.73;101275.11;1895026;75;20157;-66
2021/11/03 11:22:58;;;;;;;;;;;;;;;17.08;72.77;101279.66;1894498;75;20115;-66
2021/11/03 11:25:44;;;;;;;;;;;;;;;17.06;72.79;101274.02;1875928;76;20165;-66
2021/11/03 11:28:23;;;;;;;;;;;;;;;17.11;72.80;101282.61;1895715;76;20118;-66
2021/11/03 11:30:52;;;;;;;;;;;;;;;17.23;72.74;101288.55;1895415;75;20115;-66
2021/11/03 11:33:24;;;;;;;;;;;;;;;17.35;72.65;101284.30;1895680;76;20145;-66
2021/11/03 11:36:08;;;;;;;;;;;;;;;17.41;72.61;101295.06;1895688;76;20114;-66
2021/11/03 11:38:53;;;;;;;;;;;;;;;17.45;72.60;101296.14;1895765;75;20200;-66
2021/11/03 11:41:26;;;;;;;;;;;;;;;17.50;72.60;101298.52;1895740;76;20141;-66
2021/11/03 11:43:55;;;;;;;;;;;;;;;17.52;72.60;101296.16;1895629;76;20114;-66
2021/11/03 11:46:24;;;;;;;;;;;;;;;17.55;72.59;101300.44;1875649;75;20115;-66
2021/11/03 11:48:54;;;;;;;;;;;;;;;17.58;72.58;101299.38;1895726;76;20141;-65
2021/11/03 11:51:29;;;;;;;;;;;;;;;17.60;72.47;101301.51;1895704;76;20149;-66
2021/11/03 11:54:00;;;;;;;;;;;;;;;17.67;72.41;101307.70;1895667;76;20170;-66
2021/11/03 11:56:35;;;;;;;;;;;;;;;17.74;72.34;101311.72;1895620;76;20411;-66
2021/11/03 11:59:08;;;;;;;;;;;;;;;17.78;72.32;101318.17;1895769;76;20119;-66
2021/11/03 12:01:40;;;;;;;;;;;;;;;17.79;72.29;101325.22;1895835;74;20149;-65
2021/11/03 12:04:09;;;;;;;;;;;;;;;17.79;72.30;101329.22;1895650;76;20127;-66
2021/11/03 12:06:48;;;;;;;;;;;;;;;17.79;72.32;101336.73;1895651;75;20126;-67
2021/11/03 12:09:17;;;;;;;;;;;;;;;17.78;72.35;101331.48;1895711;76;20115;-65
2021/11/03 12:11:47;;;;;;;;;;;;;;;17.79;72.47;101336.73;1876100;76;20114;-66
2021/11/03 12:14:22;;;;;;;;;;;;;;;17.82;72.47;101334.38;1895343;75;20115;-65
2021/11/03 12:16:54;;;;;;;;;;;;;;;17.85;72.60;101336.38;1895726;76;20141;-64
2021/11/03 12:19:40;;;;;;;;;;;;;;;17.88;72.75;101338.02;1892341;76;20115;-66
2021/11/03 12:22:12;;;;;;;;;;;;;;;17.92;72.62;101335.06;1895684;76;20138;-65
2021/11/03 12:24:42;;;;;;;;;;;;;;;17.97;72.59;101337.47;1895702;76;20114;-65
2021/11/03 12:27:17;;;;;;;;;;;;;;;17.99;72.60;101336.05;1895689;76;20157;-65
2021/11/03 12:29:46;;;;;;;;;;;;;;;17.98;72.54;101344.49;1895582;76;20103;-65
2021/11/03 12:32:32;;;;;;;;;;;;;;;17.98;72.35;101356.48;1894670;75;20118;-65
2021/11/03 12:35:04;;;;;;;;;;;;;;;17.97;72.35;101362.78;1895650;76;20114;-64
2021/11/03 12:37:34;;;;;;;;;;;;;;;17.94;72.30;101372.28;1895704;76;20119;-65
2021/11/03 12:40:03;;;;;;;;;;;;;;;17.92;72.36;101375.02;1895656;76;20119;-66
2021/11/03 12:42:35;;;;;;;;;;;;;;;17.89;72.29;101369.02;1892667;76;20169;-66
2021/11/03 12:45:23;;;;;;;;;;;;;;;17.86;72.37;101375.41;1894321;75;20103;-65
2021/11/03 12:47:52;;;;;;;;;;;;;;;17.83;72.40;101375.55;1895574;75;20119;-65
2021/11/03 12:50:24;;;;;;;;;;;;;;;17.82;72.46;101383.66;1895683;74;20104;-66
2021/11/03 12:52:54;;;;;;;;;;;;;;;17.78;72.53;101387.42;1895645;76;20122;-66